Aliaksandr Martynovich

Olheiro-Chefe - Gomel
3 Dez 2028
Domingo
Processo

Personalidade

Adaptabilidade (5) Ambição (3) Controvérsia (2) Lealdade (19) Pressão (12) Profissionalismo (12) Espírito Esportivo (10) Temperamento (6)

Perfil

Estilo de Treinamento Democrático
Licença Nacional B
Determinação 7
Gestão de Pessoas 10
Motivação 3
Disciplina 5
Satisfação no Trabalho
100%
Fadiga
0%
Função Olheiro-Chefe
Salário 12.7K p/s
Contrato 14.03.2029

Desempenho

Comportamento Bom
Eficácia do Treinamento
35%
Desenvolvimento do Jogador
15%
Prevenção de Lesões
35%
Implementação Tática
50%

Eventos Recentes

Participou de uma reunião de recrutamento agora
Recomendou um alvo de transferência agora
Participou de uma reunião de recrutamento 7d atrás
Recomendou um alvo de transferência 7d atrás
Participou de uma reunião de recrutamento 7d atrás
Participou de uma reunião de recrutamento 14d atrás
Recomendou um alvo de transferência 14d atrás
Participou de uma reunião de recrutamento 14d atrás

Monitorando agora

79
Jogador Clube Status Habilidade Confiança Observado Última observação Último voto
José Barreto Quilmes Ativo 106 / 122 40% 1 21.08.2028 -
Denis M. Kovalevich Dinamo Brest Ativo 104 / 98 40% 1 21.08.2028 -
Nahuel Marzochi Colon Negociando 93 / 107 40% 1 21.08.2028 -
Giuseppe Panico Foggia Ativo 131 / 122 40% 1 16.08.2028 -
Eljon Toci Ospitaletto Ativo 115 / 111 40% 1 16.08.2028 -
Lisandro Cabrera Maipú Ativo 108 / 106 40% 1 16.08.2028 -
Lucas Pedraza Defensores Unidos Ativo 109 / 91 40% 1 15.08.2028 -
Enzo González Defensores Ativo 105 / 106 40% 1 15.08.2028 -
Luca Mazzeo Picerno Ativo 116 / 105 40% 1 15.08.2028 -
Genaro Rossi San Martín SJ Ativo 109 / 101 40% 1 14.08.2028 -
Simone Palombi Alcione Milano Ativo 121 / 100 40% 1 14.08.2028 -
Facundo Lescano Salernitana Ativo 125 / 132 40% 1 14.08.2028 -
Facundo Krüger Temperley Ativo 106 / 121 40% 1 07.08.2028 -
Ibrahim Yahaya Barau Ativo 92 / 106 40% 1 07.08.2028 -
Callum Stead Barnet Ativo 98 / 90 40% 1 07.08.2028 -
Maleace Asamoah Wigan Athletic Ativo 93 / 111 40% 1 24.07.2028 -
Fletcher Boyd Accrington Stanley Ativo 102 / 114 40% 1 24.07.2028 -
Vladislav Yakovlev Volga Ativo 90 / 96 40% 4 13.06.2028 Observar
Matty Stevens AFC Wimbledon Ativo 123 / 114 40% 1 13.06.2028 -
Alexandr Saplinov Volga Ativo 96 / 107 40% 3 11.06.2028 Observar
Axel Gnapi Dable Fakel Ativo 94 / 99 40% 1 11.06.2028 -
Ilja Safronov Rotor Ativo 105 / 106 40% 8 07.06.2028 -
Nikolay Ischenko Chaika Ativo 86 / 97 40% 1 07.06.2028 -
Nikita Simdyankin KDV Tomsk Ativo 89 / 85 40% 1 06.06.2028 -
Migran Ageyan Ufa Ativo 105 / 93 40% 1 06.06.2028 -
Baba N'Diaye Chaika Ativo 82 / 99 40% 1 05.06.2028 -
Bojan Roganović Torpedo Moscow Ativo 115 / 107 40% 1 24.01.2028 -
Vyacheslav Grulev Nizhniy Novgorod Ativo 124 / 109 40% 1 23.01.2028 -
Đorđe Pantelić Spartak Kostroma Ativo 117 / 101 40% 1 23.01.2028 -
Ignacio Saavedra Sochi Ativo 115 / 122 40% 1 19.01.2028 -
François Kamano Sochi Ativo 127 / 117 40% 3 17.01.2028 -
Magomed Nasibov Pobeda Ativo 84 / 86 40% 1 17.01.2028 -
Artur Murza Volga Ativo 107 / 89 40% 1 10.01.2028 -
Ilja Zhigulev Chernomorets Ativo 99 / 103 40% 1 10.01.2028 -
Nikolay Boyarkin Salyut Ativo 86 / 97 40% 1 07.01.2028 -
Lautaro Núñez Alvarado Ativo 114 / 91 40% 1 06.01.2028 -
Agustín Maidana San Marcos de Arica Ativo 118 / 107 40% 1 24.08.2027 -
Vadim Averkiev Orel Ativo 89 / 89 40% 1 15.06.2027 -
Georgy Natabashvili Chernomorets Ativo 84 / 95 40% 1 15.06.2027 -
Ilja Zhbanov Cobresal Ativo 90 / 94 70% 1 14.06.2027 Aprovar
Vladislav Zernaev Salyut Ativo 74 / 74 40% 2 12.06.2027 -
Surkhaikhan Abdullaev KAMAZ Ativo 84 / 94 40% 1 12.06.2027 -
Ivan Litvenok Angusht Ativo 62 / 77 40% 1 10.06.2027 -
Dmitry Rebrov Volna Ativo 84 / 80 40% 1 08.06.2027 -
Timur Akmurzin Dinamo Bryansk Ativo 93 / 98 40% 1 07.06.2027 -
Jacobo Alcalde SKA Khabarovsk Ativo 91 / 90 40% 3 05.06.2027 -
Andrey Okladnikov Yenisey Ativo 98 / 83 40% 3 30.05.2027 -
Said Aliev Rotor Ativo 101 / 107 40% 3 30.05.2027 -
Stanislav Biblyk Chaika Ativo 96 / 98 40% 2 25.05.2027 -
Ruslan Apekov Torpedo Moscow Ativo 104 / 105 40% 2 23.05.2027 -
Daniil Agureev Amkar Ativo 88 / 92 40% 2 21.05.2027 -
Giuseppe D'Agostino Giugliano Ativo 112 / 104 40% 1 19.05.2027 -
Kamran Aliev SKA Khabarovsk Ativo 114 / 104 40% 4 18.05.2027 -
Timur Melekestsev Arsenal Tula Ativo 95 / 84 40% 2 17.05.2027 -
Georgy Gongadze Ufa Ativo 109 / 93 40% 1 16.05.2027 -
Alexey Kashtanov Torpedo Moscow Ativo 104 / 101 40% 2 15.05.2027 -
Vladimir Khubulov Dinamo Makhachkala Ativo 106 / 107 40% 1 13.05.2027 -
Ilja Stefanovich Leningradets Ativo 105 / 94 40% 1 10.05.2027 -
Dmitry Lesnikov Volgar Ativo 88 / 88 40% 2 09.05.2027 -
Danil Karpov KAMAZ Ativo 92 / 94 40% 1 07.05.2027 -
Thom van Bergen Groningen Ativo 123 / 133 40% 2 05.05.2027 -
Ekain Orobengoa Real Sociedad Ativo 87 / 97 40% 1 25.04.2027 -
Georgy Melkadze Akhmat Grozny Ativo 115 / 117 40% 4 23.04.2027 -
David Davidyan Rotor Ativo 111 / 102 40% 1 21.04.2027 -
Timur Zhamaletdinov Arsenal Tula Ativo 84 / 83 40% 2 18.04.2027 -
Víctor Guzmán Sporting CP Ativo 103 / 108 40% 3 15.04.2027 -
Evgeny Voronin Volga Ativo 82 / 84 40% 2 14.04.2027 -
Leon Sabua Ural Ativo 92 / 95 40% 1 02.04.2027 -
Rashid Magomedov Neftekhimik Ativo 102 / 98 40% 2 01.04.2027 -
Daniil Kondrakov KDV Tomsk Ativo 100 / 79 40% 1 22.03.2027 -
Martin Sekulić Ural Ativo 122 / 103 40% 2 17.03.2027 -
Paolo Yrizar Chernomorets Ativo 96 / 103 40% 1 11.03.2027 -
Andrey Kren Slutsk Ativo 87 / 81 58% 1 07.09.2026 -
Rauno Sappinen Flora Ativo 115 / 119 40% 1 17.08.2026 -
Matthew Garbett Peterborough United Ativo 99 / 106 40% 1 17.08.2026 -
Jamie Reid Stevenage Ativo 93 / 94 40% 1 03.08.2026 -
Tristan Koskor Tammeka Ativo 84 / 71 40% 1 03.08.2026 -
Henri Perk Nomme Kalju Ativo 86 / 99 40% 1 02.08.2026 -
Adrian Šemper Al-Fateh Ativo 121 / 128 40% 1 02.08.2026 -